Time;durP1;ratioP1;P1;durP2;ratioP2;P2;SDS_P1;SDS_P2;PMS_P1;PMS_P2;Temp;Humidity;BMP_temperature;BMP_pressure;BME280_temperature;BME280_humidity;BME280_pressure;Samples;Min_cycle;Max_cycle;Signal;HPM_P1;HPM_P2
2023/02/15 00:01:59;;;;;;;4.13;3.23;;;18.00;57.60;;;;;;5067394;28;20194;-46
2023/02/15 00:04:45;;;;;;;4.43;3.30;;;17.90;58.20;;;;;;5063045;28;20238;-46
2023/02/15 00:07:19;;;;;;;3.83;3.20;;;17.90;57.70;;;;;;5051228;28;20197;-46
2023/02/15 00:09:49;;;;;;;3.87;3.20;;;17.90;57.70;;;;;;5066023;28;20979;-46
2023/02/15 00:12:19;;;;;;;4.23;3.00;;;17.90;57.80;;;;;;5062524;28;20210;-45
2023/02/15 00:14:48;;;;;;;4.00;3.30;;;17.80;57.80;;;;;;5067090;28;20190;-46
2023/02/15 00:17:16;;;;;;;4.60;3.43;;;17.80;57.90;;;;;;5045754;28;20229;-46
2023/02/15 00:19:45;;;;;;;3.90;3.13;;;17.80;57.90;;;;;;5046328;28;20557;-45
2023/02/15 00:22:15;;;;;;;4.50;2.90;;;17.80;57.90;;;;;;5069368;28;20221;-46
2023/02/15 00:24:45;;;;;;;3.47;2.73;;;17.80;58.00;;;;;;5066656;28;20210;-46
2023/02/15 00:27:16;;;;;;;3.83;2.93;;;17.70;58.00;;;;;;5067542;28;20198;-46
2023/02/15 00:29:46;;;;;;;5.13;3.50;;;17.70;58.10;;;;;;5061584;28;20592;-45
2023/02/15 00:32:14;;;;;;;5.13;3.47;;;17.70;58.10;;;;;;5049442;28;20193;-45
2023/02/15 00:34:44;;;;;;;3.53;3.03;;;17.70;58.20;;;;;;5048997;28;20239;-46
2023/02/15 00:37:17;;;;;;;3.97;3.30;;;17.60;58.20;;;;;;5069769;28;20201;-45
2023/02/15 00:39:45;;;;;;;3.70;3.03;;;17.60;58.90;;;;;;5064406;28;20209;-46
2023/02/15 00:42:20;;;;;;;4.73;3.20;;;17.60;58.30;;;;;;5070998;28;20213;-46
2023/02/15 00:44:49;;;;;;;4.03;3.10;;;17.60;58.30;;;;;;5069859;28;20237;-46
2023/02/15 00:47:28;;;;;;;3.40;3.00;;;17.60;58.40;;;;;;5068615;28;20258;-45
2023/02/15 00:50:00;;;;;;;5.57;3.37;;;17.50;58.50;;;;;;5069861;28;20201;-45
2023/02/15 00:52:28;;;;;;;3.77;3.20;;;17.50;58.50;;;;;;5071357;28;20220;-46
2023/02/15 00:54:56;;;;;;;4.03;2.80;;;17.50;58.50;;;;;;5064981;28;20212;-45
2023/02/15 00:57:24;;;;;;;3.60;3.10;;;17.50;58.60;;;;;;5069619;28;20202;-46
2023/02/15 00:59:54;;;;;;;3.17;2.60;;;17.50;58.60;;;;;;5052915;28;20538;-45
2023/02/15 01:02:26;;;;;;;3.93;3.17;;;17.50;58.70;;;;;;5070263;28;20232;-45
2023/02/15 01:04:57;;;;;;;4.83;3.40;;;17.40;58.60;;;;;;5066713;28;20693;-45
2023/02/15 01:07:27;;;;;;;3.77;3.13;;;17.40;58.70;;;;;;5063883;28;20190;-45
2023/02/15 01:09:54;;;;;;;3.40;3.10;;;17.40;58.70;;;;;;5070109;28;20203;-45
2023/02/15 01:12:22;;;;;;;3.90;2.80;;;17.40;58.70;;;;;;5070447;28;20194;-45
2023/02/15 01:14:51;;;;;;;3.93;3.27;;;17.40;58.70;;;;;;5070346;28;20189;-45
2023/02/15 01:17:19;;;;;;;4.13;3.30;;;17.40;58.80;;;;;;5066896;28;20225;-46
2023/02/15 01:19:54;;;;;;;3.70;3.30;;;17.40;58.80;;;;;;5071101;28;20198;-45
2023/02/15 01:22:24;;;;;;;4.37;3.40;;;17.30;58.80;;;;;;5054871;28;20646;-45
2023/02/15 01:24:55;;;;;;;3.30;3.00;;;17.40;58.90;;;;;;5052527;28;20217;-45
2023/02/15 01:27:30;;;;;;;4.10;2.77;;;17.30;58.80;;;;;;5075871;28;20266;-46
2023/02/15 01:30:04;;;;;;;2.97;2.67;;;17.30;58.90;;;;;;5054168;28;20209;-45
2023/02/15 01:32:36;;;;;;;3.57;3.07;;;17.30;58.90;;;;;;5053845;28;20186;-46
2023/02/15 01:35:07;;;;;;;5.47;3.07;;;17.30;59.00;;;;;;5069790;28;20202;-45
2023/02/15 01:37:37;;;;;;;4.27;3.20;;;17.30;59.00;;;;;;5053555;28;20214;-46
2023/02/15 01:40:14;;;;;;;3.40;3.10;;;17.30;59.00;;;;;;5049701;28;20213;-45
2023/02/15 01:42:43;;;;;;;4.63;3.17;;;17.20;59.00;;;;;;5073431;28;20189;-45
2023/02/15 01:45:26;;;;;;;3.53;2.93;;;17.20;59.00;;;;;;5052461;28;20233;-45
2023/02/15 01:48:17;;;;;;;3.67;3.20;;;17.20;59.00;;;;;;5074757;28;20193;-46
2023/02/15 01:50:56;;;;;;;3.63;3.13;;;17.20;59.10;;;;;;5080292;28;20553;-45
2023/02/15 01:53:42;;;;;;;4.23;3.33;;;17.20;59.20;;;;;;5029458;28;20218;-45
2023/02/15 01:56:17;;;;;;;4.93;3.43;;;17.20;59.70;;;;;;5069127;28;20598;-45
2023/02/15 01:58:47;;;;;;;4.07;3.43;;;17.20;59.20;;;;;;5051392;28;20201;-45
2023/02/15 02:01:20;;;;;;;4.40;3.47;;;17.10;59.10;;;;;;5052241;28;20186;-45
2023/02/15 02:04:18;;;;;;;3.70;3.33;;;17.20;59.20;;;;;;5066236;28;20305;-45
2023/02/15 02:06:50;;;;;;;4.27;3.40;;;17.10;59.20;;;;;;5058975;28;20225;-45
2023/02/15 02:09:21;;;;;;;4.20;3.47;;;17.10;59.20;;;;;;5069355;28;20650;-46
2023/02/15 02:11:54;;;;;;;3.70;3.27;;;17.10;59.20;;;;;;5050527;28;20255;-45
2023/02/15 02:14:38;;;;;;;4.20;2.87;;;17.10;59.20;;;;;;5056921;28;20194;-45
2023/02/15 02:17:30;;;;;;;4.73;3.20;;;17.10;59.20;;;;;;5048253;28;20306;-45
2023/02/15 02:20:34;;;;;;;5.47;3.63;;;17.10;59.20;;;;;;5068785;28;20208;-46
2023/02/15 02:23:34;;;;;;;4.00;3.20;;;17.00;59.20;;;;;;5062956;28;20278;-45
2023/02/15 02:26:37;;;;;;;5.53;3.07;;;17.10;59.30;;;;;;5061696;28;20202;-45
2023/02/15 02:29:40;;;;;;;6.83;3.23;;;17.10;59.30;;;;;;5055876;28;20232;-45
2023/02/15 02:32:31;;;;;;;3.60;3.10;;;17.00;59.30;;;;;;5074350;28;20603;-45
2023/02/15 02:35:20;;;;;;;3.80;3.40;;;17.00;59.30;;;;;;5074750;28;20228;-45
2023/02/15 02:38:07;;;;;;;5.07;3.63;;;17.00;59.40;;;;;;5054951;28;20212;-45
2023/02/15 02:40:54;;;;;;;4.57;3.43;;;17.00;59.40;;;;;;5060031;28;20209;-45
2023/02/15 02:43:43;;;;;;;3.77;3.10;;;17.00;59.40;;;;;;5068257;28;20204;-45
2023/02/15 02:46:27;;;;;;;4.77;3.53;;;17.00;59.40;;;;;;5067896;28;20273;-46
2023/02/15 02:48:56;;;;;;;5.07;3.53;;;17.00;59.40;;;;;;5055890;28;20596;-46
2023/02/15 02:51:27;;;;;;;3.93;3.53;;;17.00;59.40;;;;;;5062196;28;20194;-45
2023/02/15 02:54:05;;;;;;;3.30;2.90;;;17.00;59.40;;;;;;5067912;28;20209;-45
2023/02/15 02:56:47;;;;;;;5.63;3.40;;;17.00;59.40;;;;;;5051321;28;20537;-45
2023/02/15 02:59:26;;;;;;;5.10;3.47;;;17.00;59.50;;;;;;5051754;28;20198;-45
2023/02/15 03:02:20;;;;;;;3.97;3.13;;;16.90;59.40;;;;;;5069324;28;20194;-45
2023/02/15 03:05:03;;;;;;;4.40;3.67;;;16.90;59.40;;;;;;5030324;28;20233;-45
2023/02/15 03:07:37;;;;;;;4.40;3.20;;;16.90;59.40;;;;;;5062794;28;20218;-45
2023/02/15 03:10:07;;;;;;;3.87;2.87;;;16.90;59.50;;;;;;5067783;28;20201;-45
2023/02/15 03:12:40;;;;;;;4.10;3.43;;;16.90;59.40;;;;;;5068558;28;20757;-46
2023/02/15 03:16:25;;;;;;;4.03;3.53;;;16.90;59.40;;;;;;5067672;28;20202;-45
2023/02/15 03:18:28;;;;;;;4.13;3.60;;;16.90;59.40;;;;;;5066965;28;20217;-46
2023/02/15 03:21:03;;;;;;;3.63;3.33;;;16.90;59.40;;;;;;5067604;28;20186;-45
2023/02/15 03:23:34;;;;;;;4.87;4.07;;;16.80;59.40;;;;;;5064655;28;20799;-45
2023/02/15 03:26:07;;;;;;;4.87;3.90;;;16.90;59.50;;;;;;5050567;28;20236;-45
2023/02/15 03:28:47;;;;;;;3.83;3.43;;;16.80;59.30;;;;;;5042686;28;20214;-45
2023/02/15 03:31:18;;;;;;;4.10;3.70;;;16.90;59.40;;;;;;5065822;28;20204;-45
2023/02/15 03:33:59;;;;;;;4.30;3.50;;;16.80;59.40;;;;;;5068665;28;20271;-45
2023/02/15 03:37:07;;;;;;;3.80;3.47;;;16.80;59.40;;;;;;5051237;28;20209;-45
2023/02/15 03:43:49;;;;;;;5.00;3.73;;;16.80;59.40;;;;;;5049962;28;20349;-45
2023/02/15 03:46:40;;;;;;;3.83;3.20;;;16.80;59.50;;;;;;5064078;28;20226;-46
2023/02/15 03:49:14;;;;;;;3.90;3.50;;;16.80;59.50;;;;;;5062360;28;20190;-45
2023/02/15 03:51:46;;;;;;;3.67;3.30;;;16.80;59.50;;;;;;5049957;28;20356;-45
2023/02/15 03:54:44;;;;;;;4.43;3.53;;;16.80;59.50;;;;;;5050796;28;20197;-45
2023/02/15 04:03:55;;;;;;;5.10;3.40;;;16.80;59.50;;;;;;5065728;28;20276;-45
2023/02/15 04:06:24;;;;;;;5.87;4.20;;;16.80;59.40;;;;;;5017687;28;20233;-45
2023/02/15 04:11:45;;;;;;;4.87;3.40;;;16.70;59.40;;;;;;5064085;28;20588;-46
2023/02/15 04:17:06;;;;;;;4.07;3.40;;;16.70;59.40;;;;;;5071869;28;20524;-46
2023/02/15 04:25:17;;;;;;;4.70;3.50;;;16.70;59.50;;;;;;5065627;28;20228;-45
2023/02/15 04:27:54;;;;;;;3.60;3.30;;;16.70;59.50;;;;;;5064156;28;21207;-45
2023/02/15 04:30:26;;;;;;;3.63;3.10;;;16.70;59.50;;;;;;5038277;28;20208;-45
2023/02/15 04:32:56;;;;;;;5.27;4.27;;;16.70;59.50;;;;;;5050959;28;20199;-45
2023/02/15 04:35:28;;;;;;;5.00;3.80;;;16.70;59.50;;;;;;5049369;28;20631;-45
2023/02/15 04:37:58;;;;;;;4.47;4.03;;;16.60;59.40;;;;;;5067989;28;20205;-45
2023/02/15 04:40:30;;;;;;;4.80;4.20;;;16.60;59.40;;;;;;5058208;28;20666;-45
2023/02/15 04:43:00;;;;;;;3.83;3.43;;;16.60;59.40;;;;;;5067525;28;20221;-45
2023/02/15 04:45:29;;;;;;;5.37;4.10;;;16.70;59.40;;;;;;5069017;28;20256;-46
2023/02/15 04:48:01;;;;;;;3.60;3.13;;;16.60;59.40;;;;;;5068013;28;20192;-45
2023/02/15 04:50:31;;;;;;;4.03;3.63;;;16.70;59.40;;;;;;5067527;28;20208;-45
2023/02/15 04:53:01;;;;;;;4.50;3.80;;;16.60;59.40;;;;;;5063905;28;20220;-45
2023/02/15 04:55:33;;;;;;;4.40;3.50;;;16.60;59.40;;;;;;5065574;28;20700;-45
2023/02/15 04:58:02;;;;;;;4.17;3.73;;;16.60;59.40;;;;;;5067642;28;20682;-45
2023/02/15 05:00:33;;;;;;;3.90;3.60;;;16.60;59.40;;;;;;5066452;28;20786;-45
2023/02/15 05:03:04;;;;;;;4.43;4.03;;;16.60;59.40;;;;;;5069566;28;20244;-45
2023/02/15 05:05:34;;;;;;;5.40;3.80;;;16.60;59.40;;;;;;5043841;28;20238;-45
2023/02/15 05:08:04;;;;;;;7.13;3.47;;;16.60;59.40;;;;;;5067182;28;20860;-46
2023/02/15 05:10:36;;;;;;;4.63;4.20;;;16.60;59.40;;;;;;5067680;28;20685;-45
2023/02/15 05:13:06;;;;;;;4.23;3.60;;;16.60;59.40;;;;;;5067302;28;20806;-46
2023/02/15 05:15:34;;;;;;;4.03;3.63;;;16.60;59.40;;;;;;5061415;28;20197;-45
2023/02/15 05:18:06;;;;;;;4.60;4.03;;;16.50;59.30;;;;;;5069120;28;20190;-45
2023/02/15 05:20:36;;;;;;;4.50;3.97;;;16.60;59.40;;;;;;5072780;28;20208;-46
2023/02/15 05:23:12;;;;;;;4.50;3.80;;;16.50;59.40;;;;;;5066595;28;20192;-45
2023/02/15 05:28:41;;;;;;;4.60;3.70;;;16.50;59.40;;;;;;5059014;28;20245;-45
2023/02/15 05:31:11;;;;;;;4.60;4.20;;;16.50;59.40;;;;;;5073851;28;20581;-45
2023/02/15 05:33:45;;;;;;;4.53;4.10;;;16.50;59.40;;;;;;5045679;28;20617;-45
2023/02/15 05:36:15;;;;;;;4.30;3.90;;;16.50;59.40;;;;;;5068961;28;20213;-45
2023/02/15 05:38:45;;;;;;;4.23;3.83;;;16.50;59.40;;;;;;5070383;28;20193;-45
2023/02/15 05:41:13;;;;;;;4.57;4.07;;;16.40;59.40;;;;;;5066780;28;20213;-46
2023/02/15 05:43:44;;;;;;;5.20;4.20;;;16.50;59.50;;;;;;5049992;28;20221;-46
2023/02/15 05:46:14;;;;;;;4.17;3.67;;;16.50;59.40;;;;;;5064621;28;20575;-45
2023/02/15 05:48:43;;;;;;;5.10;3.97;;;16.40;60.00;;;;;;5070078;28;20247;-45
2023/02/15 05:51:16;;;;;;;5.57;4.27;;;16.50;59.40;;;;;;5080743;28;20271;-45
2023/02/15 05:53:52;;;;;;;4.87;4.33;;;16.40;59.40;;;;;;5064874;28;20202;-45
2023/02/15 05:56:23;;;;;;;4.50;4.07;;;16.40;59.30;;;;;;5071015;28;20206;-45
2023/02/15 05:58:52;;;;;;;4.87;4.30;;;16.40;59.40;;;;;;5070197;28;20220;-45
2023/02/15 06:01:22;;;;;;;4.93;4.43;;;16.40;59.30;;;;;;5068101;28;20233;-45
2023/02/15 06:03:55;;;;;;;5.17;4.63;;;16.40;59.20;;;;;;5066301;28;20654;-45
2023/02/15 06:06:24;;;;;;;4.40;3.70;;;16.40;59.20;;;;;;5077359;28;20220;-45
2023/02/15 06:08:57;;;;;;;4.90;4.17;;;16.40;59.20;;;;;;5071663;28;20197;-45
2023/02/15 06:11:26;;;;;;;4.83;4.07;;;16.40;59.20;;;;;;5068416;28;20236;-46
2023/02/15 06:13:58;;;;;;;4.60;4.20;;;16.40;59.10;;;;;;5074468;28;20194;-45
2023/02/15 06:16:30;;;;;;;6.47;4.23;;;16.40;59.10;;;;;;5071709;28;20210;-45
2023/02/15 06:19:14;;;;;;;6.03;4.60;;;16.40;59.00;;;;;;5070923;28;20202;-45
2023/02/15 06:21:45;;;;;;;5.43;4.80;;;16.40;59.00;;;;;;5068271;28;20227;-45
2023/02/15 06:24:17;;;;;;;4.77;4.20;;;16.40;58.90;;;;;;5069688;28;20194;-45
2023/02/15 06:26:44;;;;;;;5.23;4.73;;;16.40;58.80;;;;;;5081268;28;20205;-46
2023/02/15 06:29:11;;;;;;;5.73;4.57;;;16.40;58.80;;;;;;5069946;28;20217;-45
2023/02/15 06:31:40;;;;;;;5.87;5.13;;;16.40;58.70;;;;;;5067093;28;20215;-45
2023/02/15 06:34:11;;;;;;;6.10;4.67;;;16.40;58.70;;;;;;5069086;28;20205;-45
2023/02/15 06:36:40;;;;;;;5.83;5.00;;;16.40;58.70;;;;;;5065858;28;20858;-45
2023/02/15 06:39:10;;;;;;;6.77;4.97;;;16.30;58.60;;;;;;5048782;28;20613;-45
2023/02/15 06:41:42;;;;;;;6.03;5.20;;;16.30;58.60;;;;;;5043685;28;20244;-45
2023/02/15 06:44:12;;;;;;;6.40;5.30;;;16.30;58.50;;;;;;5061863;28;20275;-45
2023/02/15 06:46:48;;;;;;;6.57;5.70;;;16.30;58.30;;;;;;5046238;28;20230;-45
2023/02/15 06:49:19;;;;;;;6.33;5.50;;;16.30;58.20;;;;;;5039455;28;20186;-45
2023/02/15 06:51:48;;;;;;;6.60;5.60;;;16.30;58.10;;;;;;5023568;28;20238;-45
2023/02/15 06:54:21;;;;;;;6.60;5.90;;;16.30;58.10;;;;;;5027620;28;20218;-45
2023/02/15 06:56:51;;;;;;;7.50;6.27;;;16.30;57.80;;;;;;5041896;28;20624;-45
2023/02/15 06:59:19;;;;;;;7.97;6.10;;;16.30;57.90;;;;;;5044892;28;20278;-46
2023/02/15 07:01:48;;;;;;;8.33;6.63;;;16.30;57.80;;;;;;5030386;28;20198;-45
2023/02/15 07:04:18;;;;;;;8.50;6.30;;;16.30;57.70;;;;;;5029172;28;20229;-46
2023/02/15 07:06:46;;;;;;;8.50;6.43;;;16.30;57.70;;;;;;5032705;28;20233;-45
2023/02/15 07:09:20;;;;;;;9.57;6.90;;;16.30;57.80;;;;;;5049479;28;20198;-45
2023/02/15 07:14:42;;;;;;;8.03;6.60;;;16.20;57.70;;;;;;5049416;28;20187;-45
2023/02/15 07:17:10;;;;;;;8.60;7.27;;;16.30;57.60;;;;;;5047112;28;20544;-45
2023/02/15 07:20:07;;;;;;;9.33;6.70;;;16.20;57.60;;;;;;5047719;28;20589;-45
2023/02/15 07:22:36;;;;;;;9.00;7.50;;;16.20;57.40;;;;;;5007345;28;20272;-48
2023/02/15 07:25:09;;;;;;;10.13;7.03;;;16.20;57.30;;;;;;5048126;28;20643;-48
2023/02/15 07:27:40;;;;;;;9.13;7.43;;;16.20;57.20;;;;;;5017653;28;20619;-48
2023/02/15 07:30:16;;;;;;;8.23;7.33;;;16.20;57.20;;;;;;5040395;28;20198;-48
2023/02/15 07:35:46;;;;;;;9.20;7.77;;;16.20;57.00;;;;;;5040595;28;20525;-48
2023/02/15 07:38:18;;;;;;;10.10;7.13;;;16.20;57.00;;;;;;5047812;28;20615;-48
2023/02/15 07:40:48;;;;;;;9.93;7.30;;;16.20;57.00;;;;;;5040107;28;20213;-45
2023/02/15 07:43:20;;;;;;;10.07;7.20;;;16.20;56.90;;;;;;5024241;28;20201;-45
2023/02/15 07:45:47;;;;;;;10.03;7.60;;;16.20;56.90;;;;;;5026444;28;20257;-48
2023/02/15 07:48:16;;;;;;;10.33;7.63;;;16.20;57.00;;;;;;5035918;28;20501;-48
2023/02/15 07:50:45;;;;;;;10.27;7.93;;;16.20;56.90;;;;;;5060251;28;20205;-45
2023/02/15 07:53:15;;;;;;;10.90;7.43;;;16.20;56.70;;;;;;5032169;28;20211;-45
2023/02/15 07:55:46;;;;;;;10.80;8.03;;;16.20;56.70;;;;;;5067355;28;20553;-48
2023/02/15 07:58:16;;;;;;;10.10;8.17;;;16.20;56.70;;;;;;5068502;28;20272;-48
2023/02/15 08:00:57;;;;;;;10.40;8.00;;;16.20;56.60;;;;;;5061474;28;20737;-48
2023/02/15 08:03:28;;;;;;;9.30;8.30;;;16.20;56.60;;;;;;5062236;28;20200;-48
2023/02/15 08:05:59;;;;;;;10.43;7.93;;;16.20;56.60;;;;;;5050902;28;20211;-48
2023/02/15 08:08:35;;;;;;;114.50;30.77;;;16.20;56.40;;;;;;5043680;28;20194;-50
2023/02/15 08:11:37;;;;;;;316.93;74.50;;;16.20;57.30;;;;;;5053793;28;20828;-50
2023/02/15 08:14:24;;;;;;;254.57;67.53;;;16.50;59.00;;;;;;5066571;28;20201;-50
2023/02/15 08:16:56;;;;;;;261.17;66.93;;;16.90;58.70;;;;;;5042702;28;20214;-49
2023/02/15 08:19:32;;;;;;;241.43;58.57;;;17.30;58.30;;;;;;5047930;28;20197;-49
2023/02/15 08:22:05;;;;;;;190.33;53.30;;;17.70;57.40;;;;;;5051306;28;20216;-48
2023/02/15 08:24:37;;;;;;;171.57;50.07;;;18.00;56.60;;;;;;5050026;28;20197;-48
2023/02/15 08:27:11;;;;;;;165.47;49.10;;;18.40;55.70;;;;;;5051842;28;20275;-45
2023/02/15 08:29:46;;;;;;;141.67;42.33;;;18.60;55.50;;;;;;5062304;28;20198;-44
2023/02/15 08:32:18;;;;;;;146.03;41.97;;;18.90;55.10;;;;;;5068284;28;20197;-44
2023/02/15 08:34:51;;;;;;;128.23;38.43;;;19.40;53.20;;;;;;5050691;28;20194;-46
2023/02/15 08:37:19;;;;;;;127.83;37.63;;;19.60;53.40;;;;;;5067111;28;20201;-45
2023/02/15 08:39:49;;;;;;;107.43;36.17;;;19.90;51.80;;;;;;5055074;28;20214;-46
2023/02/15 08:42:20;;;;;;;94.90;31.43;;;20.20;51.30;;;;;;5050400;28;20212;-45
2023/02/15 08:44:52;;;;;;;93.00;31.50;;;20.40;50.80;;;;;;5059218;28;20209;-45
2023/02/15 08:47:21;;;;;;;90.57;28.77;;;20.70;50.30;;;;;;5055333;28;20295;-45
2023/02/15 08:49:50;;;;;;;82.00;27.17;;;20.90;50.10;;;;;;5061649;28;20685;-45
2023/02/15 08:52:20;;;;;;;67.87;25.07;;;21.00;49.90;;;;;;5045896;28;20633;-45
2023/02/15 08:54:50;;;;;;;57.17;23.47;;;21.00;50.20;;;;;;5067041;28;20213;-46
2023/02/15 08:57:18;;;;;;;58.07;21.30;;;21.10;50.00;;;;;;5068302;28;20210;-47
2023/02/15 08:59:50;;;;;;;50.60;20.20;;;21.30;49.50;;;;;;5054361;28;20217;-46
2023/02/15 09:02:23;;;;;;;42.50;18.93;;;21.40;49.30;;;;;;5067356;28;20256;-47
2023/02/15 09:04:55;;;;;;;46.40;18.00;;;21.60;49.20;;;;;;5067745;28;20213;-47
2023/02/15 09:07:28;;;;;;;38.83;16.73;;;21.70;48.70;;;;;;5067882;28;20206;-45
2023/02/15 09:09:56;;;;;;;41.70;17.33;;;21.80;48.60;;;;;;5070864;28;20224;-46
2023/02/15 09:12:27;;;;;;;33.77;16.03;;;21.60;48.20;;;;;;5058244;28;20194;-46
2023/02/15 09:14:55;;;;;;;39.70;16.13;;;21.40;48.30;;;;;;5069308;28;20225;-45
2023/02/15 09:17:27;;;;;;;34.27;15.70;;;21.20;48.60;;;;;;5064957;28;20594;-46
2023/02/15 09:19:57;;;;;;;30.53;13.83;;;21.10;49.30;;;;;;5070072;28;20268;-46
2023/02/15 09:22:25;;;;;;;34.40;14.70;;;20.90;49.50;;;;;;5070127;28;20268;-46
2023/02/15 09:24:55;;;;;;;25.27;13.33;;;20.80;49.40;;;;;;5070270;28;20194;-46
2023/02/15 09:27:25;;;;;;;26.77;12.97;;;20.70;49.40;;;;;;5069409;28;20303;-46
2023/02/15 09:29:54;;;;;;;25.87;13.17;;;20.70;49.70;;;;;;5054819;28;20205;-45
2023/02/15 09:32:22;;;;;;;24.37;12.37;;;20.60;49.80;;;;;;5052389;28;20189;-45
2023/02/15 09:34:53;;;;;;;24.03;11.63;;;20.50;50.20;;;;;;5070735;28;20182;-46
2023/02/15 09:37:24;;;;;;;21.43;12.47;;;20.40;50.10;;;;;;5073145;28;20201;-46
2023/02/15 09:39:53;;;;;;;22.57;12.57;;;20.40;50.40;;;;;;5048617;28;20224;-46
2023/02/15 09:42:48;;;;;;;21.17;11.80;;;20.30;50.30;;;;;;5074282;28;20220;-46
2023/02/15 09:46:09;;;;;;;17.07;11.63;;;20.30;50.50;;;;;;5070074;28;20226;-46
2023/02/15 09:48:55;;;;;;;26.70;12.23;;;20.20;50.30;;;;;;4996969;28;20207;-46
2023/02/15 09:51:35;;;;;;;19.17;10.90;;;20.10;50.50;;;;;;4971859;28;20215;-46
2023/02/15 09:54:35;;;;;;;20.73;11.33;;;20.10;50.90;;;;;;4971199;28;20653;-46
2023/02/15 09:57:19;;;;;;;16.10;10.13;;;20.10;51.50;;;;;;4987590;28;20309;-46
2023/02/15 10:00:06;;;;;;;15.50;10.30;;;20.10;51.20;;;;;;5050440;28;20228;-46
2023/02/15 10:03:17;;;;;;;14.80;9.93;;;20.10;51.40;;;;;;5063216;28;20186;-47
2023/02/15 10:06:26;;;;;;;15.33;9.40;;;20.00;51.70;;;;;;5047686;28;20272;-48
2023/02/15 10:09:43;;;;;;;16.40;9.27;;;20.00;51.30;;;;;;5068787;28;20194;-48
2023/02/15 10:12:40;;;;;;;16.47;10.37;;;19.90;51.80;;;;;;4990069;28;20669;-46
2023/02/15 10:15:19;;;;;;;12.53;8.97;;;19.90;51.50;;;;;;5008728;28;20203;-45
2023/02/15 10:18:33;;;;;;;12.93;8.90;;;19.80;51.70;;;;;;5062992;28;20209;-46
2023/02/15 10:21:33;;;;;;;11.33;8.50;;;19.90;51.70;;;;;;5053617;28;20218;-46
2023/02/15 10:24:40;;;;;;;11.70;9.20;;;19.80;51.80;;;;;;5067769;28;20197;-46
2023/02/15 10:27:20;;;;;;;14.10;9.30;;;19.80;51.70;;;;;;5062167;28;20217;-46
2023/02/15 10:30:25;;;;;;;12.07;8.93;;;19.80;51.70;;;;;;5046053;28;20206;-46
2023/02/15 10:33:01;;;;;;;15.70;8.93;;;19.80;51.80;;;;;;5053103;28;20213;-47
2023/02/15 10:36:07;;;;;;;10.93;8.37;;;19.80;52.30;;;;;;5066182;28;20263;-44
2023/02/15 10:39:02;;;;;;;11.63;8.90;;;19.80;52.50;;;;;;5047637;28;20205;-47
2023/02/15 10:41:52;;;;;;;14.70;9.50;;;19.80;52.30;;;;;;5068487;28;20214;-45
2023/02/15 10:44:31;;;;;;;13.13;8.90;;;19.80;51.80;;;;;;5063460;28;20208;-45
2023/02/15 10:47:35;;;;;;;10.77;9.10;;;19.70;51.40;;;;;;5068481;28;20241;-45
2023/02/15 10:50:36;;;;;;;13.73;9.73;;;19.70;50.50;;;;;;5062681;28;20193;-45
2023/02/15 10:53:45;;;;;;;12.93;8.73;;;19.50;50.20;;;;;;5066479;28;20223;-45
2023/02/15 10:56:29;;;;;;;10.53;9.27;;;19.40;50.10;;;;;;5072332;28;20194;-46
2023/02/15 10:59:20;;;;;;;10.60;9.40;;;19.30;50.30;;;;;;5068336;28;20186;-45
2023/02/15 11:02:28;;;;;;;11.67;9.63;;;19.30;50.20;;;;;;5068701;28;20189;-49
2023/02/15 11:05:50;;;;;;;12.27;9.63;;;19.30;50.40;;;;;;5040277;28;20718;-48
2023/02/15 11:08:20;;;;;;;13.63;9.70;;;19.20;50.40;;;;;;5006035;28;20239;-49
2023/02/15 11:11:27;;;;;;;10.17;8.93;;;19.10;50.80;;;;;;4996968;28;20725;-49
2023/02/15 11:14:03;;;;;;;11.53;9.70;;;19.10;50.60;;;;;;4994988;28;20616;-49
2023/02/15 11:16:36;;;;;;;11.10;9.00;;;19.00;50.60;;;;;;4978735;28;20220;-49
2023/02/15 11:19:21;;;;;;;10.87;9.53;;;19.00;50.80;;;;;;5058609;28;20218;-49
2023/02/15 11:21:54;;;;;;;12.57;9.60;;;19.00;50.80;;;;;;5064270;28;20185;-49
2023/02/15 11:24:28;;;;;;;12.90;9.80;;;18.90;50.90;;;;;;5049592;28;20572;-49
2023/02/15 11:27:00;;;;;;;11.93;9.67;;;18.90;51.20;;;;;;5051136;28;20228;-48
2023/02/15 11:29:38;;;;;;;10.40;9.20;;;18.90;51.20;;;;;;5060378;28;20209;-48
2023/02/15 11:32:32;;;;;;;10.73;9.10;;;18.90;51.40;;;;;;5068286;28;20206;-46
2023/02/15 11:35:17;;;;;;;11.33;9.40;;;18.90;51.40;;;;;;5072492;28;20259;-44
2023/02/15 11:37:54;;;;;;;12.03;9.00;;;18.90;51.40;;;;;;5055451;28;20225;-48
2023/02/15 11:40:39;;;;;;;11.00;8.97;;;18.80;51.60;;;;;;5062409;28;20575;-45
2023/02/15 11:43:21;;;;;;;11.83;8.97;;;18.80;51.60;;;;;;5067913;28;20534;-45
2023/02/15 11:45:50;;;;;;;10.47;8.80;;;18.80;52.30;;;;;;5066323;28;20232;-44
2023/02/15 11:48:23;;;;;;;11.53;9.57;;;18.80;51.80;;;;;;5067185;28;20237;-44
2023/02/15 11:50:52;;;;;;;11.27;8.67;;;18.80;52.00;;;;;;5067902;28;20712;-45
2023/02/15 11:53:27;;;;;;;10.47;9.10;;;18.70;52.00;;;;;;5063972;28;20522;-45
2023/02/15 11:56:18;;;;;;;11.10;9.03;;;18.80;52.40;;;;;;5065879;28;20233;-45
2023/02/15 11:59:03;;;;;;;11.73;8.37;;;18.80;52.50;;;;;;5067233;28;20201;-45
2023/02/15 12:01:41;;;;;;;14.27;8.17;;;18.80;52.90;;;;;;5057144;28;20211;-47
2023/02/15 12:04:30;;;;;;;9.87;7.37;;;18.90;54.00;;;;;;5051522;28;20588;-47
2023/02/15 12:07:34;;;;;;;10.73;6.87;;;19.40;54.10;;;;;;5064620;28;20217;-49
2023/02/15 12:10:35;;;;;;;12.23;5.77;;;19.80;53.40;;;;;;5046530;28;20213;-49
2023/02/15 12:13:21;;;;;;;7.80;6.03;;;20.20;52.10;;;;;;5047786;28;20208;-46
2023/02/15 12:15:57;;;;;;;7.23;6.03;;;20.50;52.10;;;;;;5070042;28;20216;-46
2023/02/15 12:19:01;;;;;;;7.87;5.20;;;20.60;52.20;;;;;;5049501;28;20276;-47
2023/02/15 12:21:39;;;;;;;7.70;5.30;;;20.80;52.20;;;;;;5025986;28;20227;-46
2023/02/15 12:24:28;;;;;;;6.23;5.33;;;20.90;52.10;;;;;;5068092;28;20204;-45
2023/02/15 12:27:27;;;;;;;6.40;5.33;;;21.00;51.80;;;;;;5051007;28;20209;-45
2023/02/15 12:30:10;;;;;;;7.17;5.40;;;21.00;51.40;;;;;;5051655;28;20327;-45
2023/02/15 12:33:20;;;;;;;6.60;5.90;;;20.90;51.60;;;;;;5065404;28;20193;-48
2023/02/15 12:36:01;;;;;;;6.33;5.53;;;21.00;51.50;;;;;;5066000;28;20202;-48
2023/02/15 12:38:34;;;;;;;8.03;5.67;;;20.90;51.70;;;;;;5063262;28;20697;-50
2023/02/15 12:41:26;;;;;;;7.10;5.93;;;20.90;51.90;;;;;;5060620;28;20236;-49
2023/02/15 12:44:16;;;;;;;6.43;5.60;;;20.80;51.70;;;;;;5069873;28;20674;-49
2023/02/15 12:47:23;;;;;;;6.30;5.33;;;20.80;52.60;;;;;;5071095;28;20233;-47
2023/02/15 12:50:22;;;;;;;8.13;5.73;;;20.90;52.40;;;;;;5063432;28;20190;-48
2023/02/15 12:53:30;;;;;;;8.33;5.50;;;21.10;52.70;;;;;;5068257;28;20209;-49
2023/02/15 12:56:09;;;;;;;5.67;4.50;;;21.20;52.60;;;;;;5068342;28;20519;-49
2023/02/15 12:59:05;;;;;;;6.97;5.40;;;21.30;52.40;;;;;;5071016;28;20749;-48
2023/02/15 13:01:37;;;;;;;6.20;5.40;;;21.50;52.10;;;;;;5045788;28;20200;-48
2023/02/15 13:04:14;;;;;;;6.33;5.07;;;21.60;51.40;;;;;;5049321;28;20213;-49
2023/02/15 13:06:55;;;;;;;7.43;5.83;;;21.60;51.30;;;;;;5057708;28;20309;-48
2023/02/15 13:09:40;;;;;;;14.63;6.30;;;21.50;51.30;;;;;;5057670;28;20225;-48
2023/02/15 13:12:15;;;;;;;7.60;6.30;;;21.40;51.30;;;;;;5042088;28;20204;-46
2023/02/15 13:14:51;;;;;;;8.10;6.50;;;21.40;51.30;;;;;;5071182;28;20511;-45
2023/02/15 13:17:31;;;;;;;7.50;6.33;;;21.30;51.40;;;;;;5050201;28;20213;-49
2023/02/15 13:20:17;;;;;;;7.47;6.10;;;21.30;51.70;;;;;;5054919;28;20213;-49
2023/02/15 13:23:08;;;;;;;8.67;6.00;;;21.30;52.20;;;;;;5071790;28;20194;-45
2023/02/15 13:25:50;;;;;;;7.03;6.10;;;21.30;52.10;;;;;;5051187;28;20194;-46
2023/02/15 13:28:20;;;;;;;9.33;7.00;;;21.20;52.20;;;;;;5043427;28;20245;-45
2023/02/15 13:30:51;;;;;;;7.30;6.33;;;21.20;52.20;;;;;;5070210;28;20569;-48
2023/02/15 13:33:35;;;;;;;7.63;6.80;;;21.20;52.40;;;;;;5070756;28;20201;-48
2023/02/15 13:36:32;;;;;;;7.50;6.47;;;21.20;52.40;;;;;;5053720;28;20263;-49
2023/02/15 13:39:46;;;;;;;9.00;7.23;;;21.10;52.90;;;;;;5072101;28;20201;-49
2023/02/15 13:42:52;;;;;;;8.87;6.87;;;21.00;52.00;;;;;;5057481;28;21075;-45
2023/02/15 13:45:40;;;;;;;9.90;7.97;;;21.00;52.30;;;;;;5059758;28;20516;-48
2023/02/15 13:48:44;;;;;;;9.13;7.70;;;20.90;52.20;;;;;;5064900;28;20299;-48
2023/02/15 13:51:44;;;;;;;10.77;8.30;;;20.80;52.40;;;;;;5054577;28;20199;-48
2023/02/15 13:54:32;;;;;;;10.03;8.40;;;20.70;52.30;;;;;;5057437;28;20198;-48
2023/02/15 13:57:20;;;;;;;8.77;7.40;;;20.70;52.40;;;;;;5053014;28;20212;-45
2023/02/15 14:00:17;;;;;;;10.97;8.23;;;20.60;52.70;;;;;;5058035;28;20193;-45
2023/02/15 14:03:24;;;;;;;9.13;7.87;;;20.60;52.60;;;;;;5059519;28;20205;-48
2023/02/15 14:06:24;;;;;;;11.13;8.97;;;20.50;52.70;;;;;;5039646;28;20622;-45
2023/02/15 14:09:20;;;;;;;9.33;7.33;;;20.50;52.80;;;;;;5048944;28;20238;-46
2023/02/15 14:12:21;;;;;;;7.47;5.70;;;20.60;53.30;;;;;;5054839;28;20202;-45